28.9°F
Current conditions from King Hill
Updated every 5 minutes
 
  Thursday April 17, 2014

Station Historical Data
Daily Summary for April 20, 2011 Units:  Both    English   Metric
« Previous Day
Next Day »
Daily Weekly Monthly Yearly Custom
  High: Low: Average:
Temperature: 48.6 °F /  9.2 °C 34.5 °F /  1.4 °C 41.7 °F /  5.4 °C
Dew Point: 44.0 °F /  6.7 °C 21.4 °F /  -5.9 °C 34.7 °F /  1.5 °C
Humidity: 92% 47% 77%
Wind Speed: 14.0mph /  22.5km/h - 6.3mph /  10.1km/h
Wind Gust: 28.0mph /  45.1km/h - -
Wind- - South
Pressure: 30.12 in /  1019.9 hPa 29.57 in /  1001.2 hPa -
Precipitation: 0.84 in /  21.3 mm    
Historical Graphs
 
 
Tabular Data for April 20, 2011
Time Temperature Dew Point Pressure Wind Wind Speed Wind Gust Humidity Daily Rainfall
00:00 40.7 °F /  4.8 °C 22.5 °F /  -5.3 °C 30.12in /  1019.9hPa NE 3.0mph /  4.8km/h 7.0mph /  11.3km/h 48% 0.00in /  0mm
00:04 40.7 °F /  4.8 °C 22.5 °F /  -5.3 °C 30.12in /  1019.9hPa NE 2.0mph /  3.2km/h 7.0mph /  11.3km/h 48% 0.00in /  0mm
00:09 40.7 °F /  4.8 °C 22.5 °F /  -5.3 °C 30.11in /  1019.5hPa NNE 1.0mph /  1.6km/h 7.0mph /  11.3km/h 48% 0.00in /  0mm
00:15 40.6 °F /  4.8 °C 22.9 °F /  -5.1 °C 30.12in /  1019.9hPa NE 2.0mph /  3.2km/h 7.0mph /  11.3km/h 49% 0.00in /  0mm
00:19 40.6 °F /  4.8 °C 22.4 °F /  -5.3 °C 30.11in /  1019.5hPa NE 2.0mph /  3.2km/h 7.0mph /  11.3km/h 48% 0.00in /  0mm
00:25 40.6 °F /  4.8 °C 22.4 °F /  -5.3 °C 30.12in /  1019.9hPa NE 3.0mph /  4.8km/h 6.0mph /  9.7km/h 48% 0.00in /  0mm
00:30 40.6 °F /  4.8 °C 22.9 °F /  -5.1 °C 30.11in /  1019.5hPa NE 2.0mph /  3.2km/h 6.0mph /  9.7km/h 49% 0.00in /  0mm
00:35 40.5 °F /  4.7 °C 22.3 °F /  -5.4 °C 30.11in /  1019.5hPa NE 2.0mph /  3.2km/h 5.0mph /  8km/h 48% 0.00in /  0mm
00:40 40.5 °F /  4.7 °C 22.8 °F /  -5.1 °C 30.10in /  1019.2hPa NNE 2.0mph /  3.2km/h 6.0mph /  9.7km/h 49% 0.00in /  0mm
00:44 40.4 °F /  4.7 °C 22.7 °F /  -5.2 °C 30.10in /  1019.2hPa NE 2.0mph /  3.2km/h 8.0mph /  12.9km/h 49% 0.00in /  0mm
00:49 40.3 °F /  4.6 °C 22.7 °F /  -5.2 °C 30.09in /  1018.8hPa Calm   8.0mph /  12.9km/h 49% 0.00in /  0mm
00:55 40.3 °F /  4.6 °C 22.2 °F /  -5.4 °C 30.09in /  1018.8hPa ENE 1.0mph /  1.6km/h 5.0mph /  8km/h 48% 0.00in /  0mm
00:59 40.3 °F /  4.6 °C 22.2 °F /  -5.4 °C 30.09in /  1018.8hPa ENE 2.0mph /  3.2km/h 5.0mph /  8km/h 48% 0.00in /  0mm
01:04 40.3 °F /  4.6 °C 22.2 °F /  -5.4 °C 30.08in /  1018.5hPa Calm   5.0mph /  8km/h 48% 0.00in /  0mm
01:10 40.3 °F /  4.6 °C 22.2 °F /  -5.4 °C 30.08in /  1018.5hPa ENE 3.0mph /  4.8km/h 7.0mph /  11.3km/h 48% 0.00in /  0mm
01:14 40.2 °F /  4.6 °C 22.1 °F /  -5.5 °C 30.08in /  1018.5hPa ENE 2.0mph /  3.2km/h 7.0mph /  11.3km/h 48% 0.00in /  0mm
01:19 40.3 °F /  4.6 °C 22.7 °F /  -5.2 °C 30.07in /  1018.2hPa Calm   8.0mph /  12.9km/h 49% 0.00in /  0mm
01:25 40.2 °F /  4.6 °C 22.6 °F /  -5.2 °C 30.07in /  1018.2hPa ENE 1.0mph /  1.6km/h 8.0mph /  12.9km/h 49% 0.00in /  0mm
01:30 40.1 °F /  4.5 °C 22.0 °F /  -5.6 °C 30.07in /  1018.2hPa Calm   4.0mph /  6.4km/h 48% 0.00in /  0mm
01:35 40.1 °F /  4.5 °C 22.5 °F /  -5.3 °C 30.07in /  1018.2hPa East 1.0mph /  1.6km/h 3.0mph /  4.8km/h 49% 0.00in /  0mm
01:40 40.1 °F /  4.5 °C 22.0 °F /  -5.6 °C 30.06in /  1017.8hPa Calm   3.0mph /  4.8km/h 48% 0.00in /  0mm
01:44 40.0 °F /  4.4 °C 21.9 °F /  -5.6 °C 30.05in /  1017.5hPa ENE 1.0mph /  1.6km/h 3.0mph /  4.8km/h 48% 0.00in /  0mm
01:49 40.0 °F /  4.4 °C 22.9 °F /  -5.1 °C 30.05in /  1017.5hPa Calm   3.0mph /  4.8km/h 50% 0.00in /  0mm
01:55 40.0 °F /  4.4 °C 22.4 °F /  -5.3 °C 30.05in /  1017.5hPa Calm   3.0mph /  4.8km/h 49% 0.00in /  0mm
01:59 39.9 °F /  4.4 °C 21.8 °F /  -5.7 °C 30.04in /  1017.2hPa NE 1.0mph /  1.6km/h 4.0mph /  6.4km/h 48% 0.00in /  0mm
02:04 39.9 °F /  4.4 °C 22.8 °F /  -5.1 °C 30.04in /  1017.2hPa Calm   4.0mph /  6.4km/h 50% 0.00in /  0mm
02:10 39.9 °F /  4.4 °C 23.2 °F /  -4.9 °C 30.04in /  1017.2hPa Calm   3.0mph /  4.8km/h 51% 0.00in /  0mm
02:14 39.8 °F /  4.3 °C 23.6 °F /  -4.7 °C 30.04in /  1017.2hPa Calm   3.0mph /  4.8km/h 52% 0.00in /  0mm
02:20 39.8 °F /  4.3 °C 22.7 °F /  -5.2 °C 30.04in /  1017.2hPa Calm   3.0mph /  4.8km/h 50% 0.00in /  0mm
02:25 39.8 °F /  4.3 °C 23.6 °F /  -4.7 °C 30.03in /  1016.8hPa Calm   2.0mph /  3.2km/h 52% 0.00in /  0mm
02:30 39.8 °F /  4.3 °C 21.7 °F /  -5.7 °C 30.04in /  1017.2hPa ENE 1.0mph /  1.6km/h 2.0mph /  3.2km/h 48% 0.00in /  0mm
02:34 39.9 °F /  4.4 °C 22.8 °F /  -5.1 °C 30.03in /  1016.8hPa Calm   3.0mph /  4.8km/h 50% 0.00in /  0mm
02:40 40.0 °F /  4.4 °C 21.4 °F /  -5.9 °C 30.02in /  1016.5hPa Calm   3.0mph /  4.8km/h 47% 0.00in /  0mm
02:44 40.2 °F /  4.6 °C 23.5 °F /  -4.7 °C 30.04in /  1017.2hPa Calm   3.0mph /  4.8km/h 51% 0.00in /  0mm
02:50 40.2 °F /  4.6 °C 24.0 °F /  -4.4 °C 30.04in /  1017.2hPa Calm   1.0mph /  1.6km/h 52% 0.00in /  0mm
02:54 40.0 °F /  4.4 °C 26.4 °F /  -3.1 °C 30.04in /  1017.2hPa Calm     58% 0.00in /  0mm
02:59 39.6 °F /  4.2 °C 23.9 °F /  -4.5 °C 30.04in /  1017.2hPa East 1.0mph /  1.6km/h 1.0mph /  1.6km/h 53% 0.00in /  0mm
03:04 39.4 °F /  4.1 °C 23.2 °F /  -4.9 °C 30.02in /  1016.5hPa Calm   2.0mph /  3.2km/h 52% 0.00in /  0mm
03:09 39.6 °F /  4.2 °C 22.5 °F /  -5.3 °C 30.02in /  1016.5hPa East 1.0mph /  1.6km/h 3.0mph /  4.8km/h 50% 0.00in /  0mm
03:14 39.7 °F /  4.3 °C 23.1 °F /  -4.9 °C 30.02in /  1016.5hPa Calm   3.0mph /  4.8km/h 51% 0.00in /  0mm
03:20 39.5 °F /  4.2 °C 23.8 °F /  -4.6 °C 30.01in /  1016.1hPa ESE 1.0mph /  1.6km/h 3.0mph /  4.8km/h 53% 0.00in /  0mm
03:24 39.0 °F /  3.9 °C 24.6 °F /  -4.1 °C 30.01in /  1016.1hPa ENE 2.0mph /  3.2km/h 6.0mph /  9.7km/h 56% 0.00in /  0mm
03:29 38.6 °F /  3.7 °C 24.3 °F /  -4.3 °C 30.01in /  1016.1hPa NE 1.0mph /  1.6km/h 6.0mph /  9.7km/h 56% 0.00in /  0mm
03:34 38.2 °F /  3.4 °C 24.7 °F /  -4.1 °C 30.01in /  1016.1hPa Calm   5.0mph /  8km/h 58% 0.00in /  0mm
03:39 38.1 °F /  3.4 °C 25.0 °F /  -3.9 °C 30.01in /  1016.1hPa Calm   3.0mph /  4.8km/h 59% 0.00in /  0mm
03:45 37.9 °F /  3.3 °C 25.3 °F /  -3.7 °C 30.00in /  1015.8hPa Calm   2.0mph /  3.2km/h 60% 0.00in /  0mm
03:49 37.8 °F /  3.2 °C 24.8 °F /  -4 °C 30.00in /  1015.8hPa NE 1.0mph /  1.6km/h 4.0mph /  6.4km/h 59% 0.00in /  0mm
03:55 37.7 °F /  3.2 °C 25.1 °F /  -3.8 °C 29.99in /  1015.5hPa Calm   4.0mph /  6.4km/h 60% 0.00in /  0mm
03:59 37.6 °F /  3.1 °C 25.4 °F /  -3.7 °C 29.98in /  1015.1hPa Calm   3.0mph /  4.8km/h 61% 0.00in /  0mm
04:05 37.5 °F /  3.1 °C 25.7 °F /  -3.5 °C 29.98in /  1015.1hPa ENE 2.0mph /  3.2km/h 5.0mph /  8km/h 62% 0.00in /  0mm
04:09 37.5 °F /  3.1 °C 26.1 °F /  -3.3 °C 29.98in /  1015.1hPa NE 1.0mph /  1.6km/h 6.0mph /  9.7km/h 63% 0.00in /  0mm
04:14 37.4 °F /  3 °C 26.3 °F /  -3.2 °C 29.99in /  1015.5hPa Calm   6.0mph /  9.7km/h 64% 0.00in /  0mm
04:20 37.1 °F /  2.8 °C 28.6 °F /  -1.9 °C 29.99in /  1015.5hPa Calm   4.0mph /  6.4km/h 71% 0.00in /  0mm
04:24 36.5 °F /  2.5 °C 29.7 °F /  -1.3 °C 29.99in /  1015.5hPa SSE 1.0mph /  1.6km/h 5.0mph /  8km/h 76% 0.00in /  0mm
04:29 36.0 °F /  2.2 °C 29.5 °F /  -1.4 °C 29.98in /  1015.1hPa ESE 2.0mph /  3.2km/h 5.0mph /  8km/h 77% 0.01in /  0.3mm
04:34 35.7 °F /  2.1 °C 28.9 °F /  -1.7 °C 29.97in /  1014.8hPa NE 2.0mph /  3.2km/h 7.0mph /  11.3km/h 76% 0.03in /  0.8mm
04:39 35.6 °F /  2 °C 28.8 °F /  -1.8 °C 29.97in /  1014.8hPa Calm   7.0mph /  11.3km/h 76% 0.05in /  1.3mm
04:45 35.4 °F /  1.9 °C 29.5 °F /  -1.4 °C 29.97in /  1014.8hPa ESE 1.0mph /  1.6km/h 4.0mph /  6.4km/h 79% 0.06in /  1.5mm
04:49 35.2 °F /  1.8 °C 30.0 °F /  -1.1 °C 29.95in /  1014.1hPa Calm   4.0mph /  6.4km/h 81% 0.06in /  1.5mm
04:55 35.0 °F /  1.7 °C 29.8 °F /  -1.2 °C 29.96in /  1014.4hPa Calm   3.0mph /  4.8km/h 81% 0.06in /  1.5mm
04:59 35.1 °F /  1.7 °C 29.6 °F /  -1.3 °C 29.99in /  1015.5hPa Calm   3.0mph /  4.8km/h 80% 0.07in /  1.8mm
05:04 35.1 °F /  1.7 °C 30.5 °F /  -0.8 °C 29.99in /  1015.5hPa Calm   3.0mph /  4.8km/h 83% 0.07in /  1.8mm
05:10 35.0 °F /  1.7 °C 30.7 °F /  -0.7 °C 30.00in /  1015.8hPa East 1.0mph /  1.6km/h 3.0mph /  4.8km/h 84% 0.07in /  1.8mm
05:14 35.0 °F /  1.7 °C 31.0 °F /  -0.6 °C 30.02in /  1016.5hPa Calm   3.0mph /  4.8km/h 85% 0.07in /  1.8mm
05:19 34.9 °F /  1.6 °C 30.9 °F /  -0.6 °C 30.01in /  1016.1hPa Calm   3.0mph /  4.8km/h 85% 0.08in /  2mm
05:25 34.8 °F /  1.6 °C 30.8 °F /  -0.7 °C 29.98in /  1015.1hPa East 1.0mph /  1.6km/h 5.0mph /  8km/h 85% 0.09in /  2.3mm
05:29 34.8 °F /  1.6 °C 31.0 °F /  -0.6 °C 29.97in /  1014.8hPa ENE 1.0mph /  1.6km/h 5.0mph /  8km/h 86% 0.10in /  2.5mm
05:35 34.8 °F /  1.6 °C 31.0 °F /  -0.6 °C 29.95in /  1014.1hPa ESE 2.0mph /  3.2km/h 5.0mph /  8km/h 86% 0.11in /  2.8mm
05:39 34.7 °F /  1.5 °C 30.7 °F /  -0.7 °C 29.93in /  1013.4hPa SE 1.0mph /  1.6km/h 6.0mph /  9.7km/h 85% 0.11in /  2.8mm
05:44 34.5 °F /  1.4 °C 30.7 °F /  -0.7 °C 29.92in /  1013.1hPa ESE 1.0mph /  1.6km/h 6.0mph /  9.7km/h 86% 0.13in /  3.3mm
05:49 34.5 °F /  1.4 °C 30.7 °F /  -0.7 °C 29.91in /  1012.8hPa ESE 1.0mph /  1.6km/h 5.0mph /  8km/h 86% 0.13in /  3.3mm
05:54 34.5 °F /  1.4 °C 31.0 °F /  -0.6 °C 29.91in /  1012.8hPa Calm   5.0mph /  8km/h 87% 0.15in /  3.8mm
05:59 34.7 °F /  1.5 °C 31.2 °F /  -0.4 °C 29.90in /  1012.4hPa Calm   2.0mph /  3.2km/h 87% 0.17in /  4.3mm
06:04 34.7 °F /  1.5 °C 31.2 °F /  -0.4 °C 29.90in /  1012.4hPa Calm   2.0mph /  3.2km/h 87% 0.19in /  4.8mm
06:09 34.8 °F /  1.6 °C 31.6 °F /  -0.2 °C 29.90in /  1012.4hPa Calm   2.0mph /  3.2km/h 88% 0.21in /  5.3mm
06:15 34.8 °F /  1.6 °C 31.6 °F /  -0.2 °C 29.89in /  1012.1hPa NE 3.0mph /  4.8km/h 9.0mph /  14.5km/h 88% 0.23in /  5.8mm
06:19 35.4 °F /  1.9 °C 32.5 °F /  0.3 °C 29.90in /  1012.4hPa SSE 2.0mph /  3.2km/h 11.0mph /  17.7km/h 89% 0.25in /  6.4mm
06:25 35.9 °F /  2.2 °C 33.0 °F /  0.6 °C 29.89in /  1012.1hPa Calm   11.0mph /  17.7km/h 89% 0.27in /  6.9mm
06:29 36.3 °F /  2.4 °C 33.4 °F /  0.8 °C 29.90in /  1012.4hPa ESE 1.0mph /  1.6km/h 5.0mph /  8km/h 89% 0.29in /  7.4mm
06:35 36.4 °F /  2.4 °C 33.5 °F /  0.8 °C 29.89in /  1012.1hPa Calm   3.0mph /  4.8km/h 89% 0.31in /  7.9mm
06:39 36.2 °F /  2.3 °C 33.3 °F /  0.7 °C 29.90in /  1012.4hPa Calm   3.0mph /  4.8km/h 89% 0.33in /  8.4mm
06:44 36.0 °F /  2.2 °C 33.1 °F /  0.6 °C 29.90in /  1012.4hPa Calm     89% 0.34in /  8.6mm
06:50 36.0 °F /  2.2 °C 33.1 °F /  0.6 °C 29.90in /  1012.4hPa Calm     89% 0.36in /  9.1mm
06:54 36.0 °F /  2.2 °C 33.1 °F /  0.6 °C 29.89in /  1012.1hPa ESE 1.0mph /  1.6km/h 2.0mph /  3.2km/h 89% 0.39in /  9.9mm
06:59 36.6 °F /  2.6 °C 33.9 °F /  1.1 °C 29.89in /  1012.1hPa South 2.0mph /  3.2km/h 7.0mph /  11.3km/h 90% 0.40in /  10.2mm
07:04 37.5 °F /  3.1 °C 35.1 °F /  1.7 °C 29.89in /  1012.1hPa South 1.0mph /  1.6km/h 8.0mph /  12.9km/h 91% 0.41in /  10.4mm
07:09 37.9 °F /  3.3 °C 35.5 °F /  1.9 °C 29.88in /  1011.7hPa SE 2.0mph /  3.2km/h 8.0mph /  12.9km/h 91% 0.43in /  10.9mm
07:14 38.1 °F /  3.4 °C 35.7 °F /  2.1 °C 29.88in /  1011.7hPa SE 2.0mph /  3.2km/h 5.0mph /  8km/h 91% 0.44in /  11.2mm
07:19 38.3 °F /  3.5 °C 35.6 °F /  2 °C 29.90in /  1012.4hPa South 4.0mph /  6.4km/h 8.0mph /  12.9km/h 90% 0.45in /  11.4mm
07:24 38.6 °F /  3.7 °C 35.9 °F /  2.2 °C 29.90in /  1012.4hPa South 7.0mph /  11.3km/h 12.0mph /  19.3km/h 90% 0.46in /  11.7mm
07:30 38.7 °F /  3.7 °C 35.7 °F /  2.1 °C 29.91in /  1012.8hPa South 4.0mph /  6.4km/h 12.0mph /  19.3km/h 89% 0.49in /  12.4mm
07:35 38.7 °F /  3.7 °C 35.5 °F /  1.9 °C 29.90in /  1012.4hPa South 3.0mph /  4.8km/h 9.0mph /  14.5km/h 88% 0.53in /  13.5mm
07:39 38.7 °F /  3.7 °C 35.5 °F /  1.9 °C 29.91in /  1012.8hPa SSW 4.0mph /  6.4km/h 11.0mph /  17.7km/h 88% 0.55in /  14mm
07:44 38.7 °F /  3.7 °C 35.5 °F /  1.9 °C 29.91in /  1012.8hPa SSW 3.0mph /  4.8km/h 11.0mph /  17.7km/h 88% 0.57in /  14.5mm
07:50 38.7 °F /  3.7 °C 35.5 °F /  1.9 °C 29.89in /  1012.1hPa South 5.0mph /  8km/h 9.0mph /  14.5km/h 88% 0.59in /  15mm
07:54 38.7 °F /  3.7 °C 35.5 °F /  1.9 °C 29.89in /  1012.1hPa South 7.0mph /  11.3km/h 12.0mph /  19.3km/h 88% 0.61in /  15.5mm
07:59 38.7 °F /  3.7 °C 35.2 °F /  1.8 °C 29.88in /  1011.7hPa South 8.0mph /  12.9km/h 14.0mph /  22.5km/h 87% 0.63in /  16mm
08:04 38.7 °F /  3.7 °C 35.5 °F /  1.9 °C 29.85in /  1010.7hPa SSE 6.0mph /  9.7km/h 14.0mph /  22.5km/h 88% 0.65in /  16.5mm
08:09 38.6 °F /  3.7 °C 35.4 °F /  1.9 °C 29.84in /  1010.4hPa South 3.0mph /  4.8km/h 14.0mph /  22.5km/h 88% 0.69in /  17.5mm
08:14 38.6 °F /  3.7 °C 35.4 °F /  1.9 °C 29.84in /  1010.4hPa SSW 4.0mph /  6.4km/h 10.0mph /  16.1km/h 88% 0.71in /  18mm
08:19 38.7 °F /  3.7 °C 35.5 °F /  1.9 °C 29.84in /  1010.4hPa South 4.0mph /  6.4km/h 9.0mph /  14.5km/h 88% 0.73in /  18.5mm
08:24 38.8 °F /  3.8 °C 35.6 °F /  2 °C 29.82in /  1009.7hPa South 4.0mph /  6.4km/h 10.0mph /  16.1km/h 88% 0.74in /  18.8mm
08:30 39.1 °F /  3.9 °C 35.6 °F /  2 °C 29.83in /  1010hPa South 6.0mph /  9.7km/h 16.0mph /  25.7km/h 87% 0.76in /  19.3mm
08:34 39.2 °F /  4 °C 35.7 °F /  2.1 °C 29.74in /  1007hPa SSE 6.0mph /  9.7km/h 16.0mph /  25.7km/h 87% 0.77in /  19.6mm
08:39 39.2 °F /  4 °C 35.7 °F /  2.1 °C 29.73in /  1006.7hPa SE 3.0mph /  4.8km/h 16.0mph /  25.7km/h 87% 0.77in /  19.6mm
08:44 39.3 °F /  4.1 °C 36.0 °F /  2.2 °C 29.77in /  1008hPa SSW 4.0mph /  6.4km/h 16.0mph /  25.7km/h 88% 0.77in /  19.6mm
08:49 39.7 °F /  4.3 °C 36.2 °F /  2.3 °C 29.76in /  1007.7hPa South 5.0mph /  8km/h 15.0mph /  24.1km/h 87% 0.77in /  19.6mm
08:54 40.0 °F /  4.4 °C 36.4 °F /  2.4 °C 29.76in /  1007.7hPa South 6.0mph /  9.7km/h 15.0mph /  24.1km/h 87% 0.77in /  19.6mm
08:59 40.4 °F /  4.7 °C 36.5 °F /  2.5 °C 29.79in /  1008.7hPa SSW 3.0mph /  4.8km/h 13.0mph /  20.9km/h 86% 0.77in /  19.6mm
09:04 40.5 °F /  4.7 °C 36.3 °F /  2.4 °C 29.78in /  1008.4hPa South 6.0mph /  9.7km/h 11.0mph /  17.7km/h 85% 0.77in /  19.6mm
09:09 40.7 °F /  4.8 °C 36.2 °F /  2.3 °C 29.76in /  1007.7hPa South 7.0mph /  11.3km/h 17.0mph /  27.4km/h 84% 0.77in /  19.6mm
09:14 40.6 °F /  4.8 °C 36.1 °F /  2.3 °C 29.77in /  1008hPa SSW 11.0mph /  17.7km/h 21.0mph /  33.8km/h 84% 0.78in /  19.8mm
09:19 40.3 °F /  4.6 °C 35.9 °F /  2.2 °C 29.78in /  1008.4hPa SSW 8.0mph /  12.9km/h 21.0mph /  33.8km/h 84% 0.78in /  19.8mm
09:24 40.1 °F /  4.5 °C 35.7 °F /  2.1 °C 29.80in /  1009hPa SW 7.0mph /  11.3km/h 17.0mph /  27.4km/h 84% 0.79in /  20.1mm
09:29 40.0 °F /  4.4 °C 35.9 °F /  2.2 °C 29.79in /  1008.7hPa SSW 9.0mph /  14.5km/h 18.0mph /  29km/h 85% 0.79in /  20.1mm
09:34 40.0 °F /  4.4 °C 35.9 °F /  2.2 °C 29.75in /  1007.3hPa South 7.0mph /  11.3km/h 19.0mph /  30.6km/h 85% 0.79in /  20.1mm
09:40 40.0 °F /  4.4 °C 35.9 °F /  2.2 °C 29.77in /  1008hPa South 10.0mph /  16.1km/h 20.0mph /  32.2km/h 85% 0.79in /  20.1mm
09:44 40.0 °F /  4.4 °C 35.9 °F /  2.2 °C 29.77in /  1008hPa South 7.0mph /  11.3km/h 20.0mph /  32.2km/h 85% 0.79in /  20.1mm
09:49 40.1 °F /  4.5 °C 36.0 °F /  2.2 °C 29.75in /  1007.3hPa South 10.0mph /  16.1km/h 21.0mph /  33.8km/h 85% 0.79in /  20.1mm
09:54 40.4 °F /  4.7 °C 36.3 °F /  2.4 °C 29.75in /  1007.3hPa South 7.0mph /  11.3km/h 21.0mph /  33.8km/h 85% 0.79in /  20.1mm
09:59 40.5 °F /  4.7 °C 35.7 °F /  2.1 °C 29.74in /  1007hPa SSW 7.0mph /  11.3km/h 19.0mph /  30.6km/h 83% 0.79in /  20.1mm
10:04 40.6 °F /  4.8 °C 35.8 °F /  2.1 °C 29.73in /  1006.7hPa South 8.0mph /  12.9km/h 19.0mph /  30.6km/h 83% 0.79in /  20.1mm
10:09 40.8 °F /  4.9 °C 35.7 °F /  2.1 °C 29.72in /  1006.3hPa South 10.0mph /  16.1km/h 18.0mph /  29km/h 82% 0.79in /  20.1mm
10:14 41.2 °F /  5.1 °C 36.1 °F /  2.3 °C 29.72in /  1006.3hPa South 9.0mph /  14.5km/h 21.0mph /  33.8km/h 82% 0.79in /  20.1mm
10:19 41.8 °F /  5.4 °C 36.1 °F /  2.3 °C 29.71in /  1006hPa South 11.0mph /  17.7km/h 21.0mph /  33.8km/h 80% 0.79in /  20.1mm
10:24 42.0 °F /  5.6 °C 36.3 °F /  2.4 °C 29.71in /  1006hPa South 11.0mph /  17.7km/h 20.0mph /  32.2km/h 80% 0.79in /  20.1mm
10:29 42.2 °F /  5.7 °C 36.2 °F /  2.3 °C 29.70in /  1005.6hPa South 8.0mph /  12.9km/h 25.0mph /  40.2km/h 79% 0.79in /  20.1mm
10:34 42.2 °F /  5.7 °C 35.5 °F /  1.9 °C 29.71in /  1006hPa SSW 14.0mph /  22.5km/h 25.0mph /  40.2km/h 77% 0.79in /  20.1mm
10:39 42.5 °F /  5.8 °C 35.8 °F /  2.1 °C 29.71in /  1006hPa South 10.0mph /  16.1km/h 24.0mph /  38.6km/h 77% 0.79in /  20.1mm
10:44 42.6 °F /  5.9 °C 35.9 °F /  2.2 °C 29.71in /  1006hPa South 10.0mph /  16.1km/h 20.0mph /  32.2km/h 77% 0.79in /  20.1mm
10:49 42.8 °F /  6 °C 35.8 °F /  2.1 °C 29.71in /  1006hPa South 7.0mph /  11.3km/h 22.0mph /  35.4km/h 76% 0.79in /  20.1mm
10:54 42.8 °F /  6 °C 35.4 °F /  1.9 °C 29.70in /  1005.6hPa South 11.0mph /  17.7km/h 22.0mph /  35.4km/h 75% 0.79in /  20.1mm
10:59 43.1 °F /  6.2 °C 35.7 °F /  2.1 °C 29.71in /  1006hPa SSW 10.0mph /  16.1km/h 19.0mph /  30.6km/h 75% 0.79in /  20.1mm
11:04 43.0 °F /  6.1 °C 35.3 °F /  1.8 °C 29.71in /  1006hPa South 9.0mph /  14.5km/h 28.0mph /  45.1km/h 74% 0.79in /  20.1mm
11:09 42.8 °F /  6 °C 35.1 °F /  1.7 °C 29.70in /  1005.6hPa South 10.0mph /  16.1km/h 28.0mph /  45.1km/h 74% 0.79in /  20.1mm
11:14 42.6 °F /  5.9 °C 34.9 °F /  1.6 °C 29.69in /  1005.3hPa South 10.0mph /  16.1km/h 22.0mph /  35.4km/h 74% 0.79in /  20.1mm
11:19 42.4 °F /  5.8 °C 34.7 °F /  1.5 °C 29.70in /  1005.6hPa South 9.0mph /  14.5km/h 23.0mph /  37km/h 74% 0.79in /  20.1mm
11:24 42.3 °F /  5.7 °C 34.3 °F /  1.3 °C 29.70in /  1005.6hPa SSW 13.0mph /  20.9km/h 23.0mph /  37km/h 73% 0.79in /  20.1mm
11:29 42.3 °F /  5.7 °C 34.6 °F /  1.4 °C 29.70in /  1005.6hPa South 9.0mph /  14.5km/h 19.0mph /  30.6km/h 74% 0.79in /  20.1mm
11:34 42.4 °F /  5.8 °C 34.4 °F /  1.3 °C 29.71in /  1006hPa South 8.0mph /  12.9km/h 21.0mph /  33.8km/h 73% 0.79in /  20.1mm
11:39 42.3 °F /  5.7 °C 33.9 °F /  1.1 °C 29.71in /  1006hPa SSW 11.0mph /  17.7km/h 21.0mph /  33.8km/h 72% 0.79in /  20.1mm
11:44 42.1 °F /  5.6 °C 34.1 °F /  1.2 °C 29.71in /  1006hPa South 8.0mph /  12.9km/h 21.0mph /  33.8km/h 73% 0.79in /  20.1mm
11:49 42.2 °F /  5.7 °C 34.5 °F /  1.4 °C 29.70in /  1005.6hPa South 8.0mph /  12.9km/h 14.0mph /  22.5km/h 74% 0.79in /  20.1mm
11:54 42.3 °F /  5.7 °C 34.6 °F /  1.4 °C 29.72in /  1006.3hPa SSW 7.0mph /  11.3km/h 19.0mph /  30.6km/h 74% 0.79in /  20.1mm
11:59 42.1 °F /  5.6 °C 34.1 °F /  1.2 °C 29.72in /  1006.3hPa SSW 9.0mph /  14.5km/h 19.0mph /  30.6km/h 73% 0.79in /  20.1mm
12:04 42.0 °F /  5.6 °C 34.3 °F /  1.3 °C 29.71in /  1006hPa SSW 6.0mph /  9.7km/h 16.0mph /  25.7km/h 74% 0.79in /  20.1mm
12:09 42.0 °F /  5.6 °C 34.0 °F /  1.1 °C 29.71in /  1006hPa SSW 7.0mph /  11.3km/h 13.0mph /  20.9km/h 73% 0.79in /  20.1mm
12:14 42.0 °F /  5.6 °C 34.3 °F /  1.3 °C 29.71in /  1006hPa South 6.0mph /  9.7km/h 13.0mph /  20.9km/h 74% 0.79in /  20.1mm
12:19 42.0 °F /  5.6 °C 34.3 °F /  1.3 °C 29.71in /  1006hPa SSW 5.0mph /  8km/h 14.0mph /  22.5km/h 74% 0.79in /  20.1mm
12:24 41.9 °F /  5.5 °C 34.6 °F /  1.4 °C 29.71in /  1006hPa South 8.0mph /  12.9km/h 14.0mph /  22.5km/h 75% 0.79in /  20.1mm
12:29 41.9 °F /  5.5 °C 34.6 °F /  1.4 °C 29.71in /  1006hPa South 6.0mph /  9.7km/h 13.0mph /  20.9km/h 75% 0.79in /  20.1mm
12:34 41.7 °F /  5.4 °C 34.4 °F /  1.3 °C 29.71in /  1006hPa South 7.0mph /  11.3km/h 12.0mph /  19.3km/h 75% 0.79in /  20.1mm
12:39 41.5 °F /  5.3 °C 34.2 °F /  1.2 °C 29.70in /  1005.6hPa South 7.0mph /  11.3km/h 17.0mph /  27.4km/h 75% 0.79in /  20.1mm
12:44 41.4 °F /  5.2 °C 34.1 °F /  1.2 °C 29.69in /  1005.3hPa South 9.0mph /  14.5km/h 17.0mph /  27.4km/h 75% 0.79in /  20.1mm
12:49 41.2 °F /  5.1 °C 33.9 °F /  1.1 °C 29.69in /  1005.3hPa South 7.0mph /  11.3km/h 20.0mph /  32.2km/h 75% 0.79in /  20.1mm
12:55 41.0 °F /  5 °C 34.0 °F /  1.1 °C 29.69in /  1005.3hPa South 9.0mph /  14.5km/h 20.0mph /  32.2km/h 76% 0.79in /  20.1mm
12:59 40.9 °F /  4.9 °C 33.9 °F /  1.1 °C 29.69in /  1005.3hPa SSW 5.0mph /  8km/h 18.0mph /  29km/h 76% 0.79in /  20.1mm
13:04 40.7 °F /  4.8 °C 33.7 °F /  0.9 °C 29.69in /  1005.3hPa South 10.0mph /  16.1km/h 18.0mph /  29km/h 76% 0.79in /  20.1mm
13:09 40.6 °F /  4.8 °C 33.6 °F /  0.9 °C 29.69in /  1005.3hPa SSW 7.0mph /  11.3km/h 17.0mph /  27.4km/h 76% 0.79in /  20.1mm
13:14 40.6 °F /  4.8 °C 34.0 °F /  1.1 °C 29.69in /  1005.3hPa SSW 5.0mph /  8km/h 17.0mph /  27.4km/h 77% 0.79in /  20.1mm
13:19 40.6 °F /  4.8 °C 34.0 °F /  1.1 °C 29.70in /  1005.6hPa South 7.0mph /  11.3km/h 15.0mph /  24.1km/h 77% 0.79in /  20.1mm
13:24 40.5 °F /  4.7 °C 34.2 °F /  1.2 °C 29.69in /  1005.3hPa South 8.0mph /  12.9km/h 18.0mph /  29km/h 78% 0.79in /  20.1mm
13:29 40.5 °F /  4.7 °C 34.5 °F /  1.4 °C 29.69in /  1005.3hPa South 10.0mph /  16.1km/h 18.0mph /  29km/h 79% 0.79in /  20.1mm
13:35 40.2 °F /  4.6 °C 34.8 °F /  1.6 °C 29.68in /  1005hPa South 10.0mph /  16.1km/h 17.0mph /  27.4km/h 81% 0.79in /  20.1mm
13:44 40.3 °F /  4.6 °C 35.9 °F /  2.2 °C 29.68in /  1005hPa South 7.0mph /  11.3km/h 16.0mph /  25.7km/h 84% 0.80in /  20.3mm
13:49 40.2 °F /  4.6 °C 36.1 °F /  2.3 °C 29.68in /  1005hPa South 8.0mph /  12.9km/h 16.0mph /  25.7km/h 85% 0.80in /  20.3mm
13:54 39.9 °F /  4.4 °C 35.8 °F /  2.1 °C 29.68in /  1005hPa South 8.0mph /  12.9km/h 16.0mph /  25.7km/h 85% 0.81in /  20.6mm
13:59 39.8 °F /  4.3 °C 36.0 °F /  2.2 °C 29.67in /  1004.6hPa South 8.0mph /  12.9km/h 14.0mph /  22.5km/h 86% 0.81in /  20.6mm
14:04 39.8 °F /  4.3 °C 36.3 °F /  2.4 °C 29.67in /  1004.6hPa South 8.0mph /  12.9km/h 18.0mph /  29km/h 87% 0.82in /  20.8mm
14:09 40.0 °F /  4.4 °C 36.7 °F /  2.6 °C 29.66in /  1004.3hPa South 7.0mph /  11.3km/h 18.0mph /  29km/h 88% 0.82in /  20.8mm
14:14 40.2 °F /  4.6 °C 36.9 °F /  2.7 °C 29.66in /  1004.3hPa South 7.0mph /  11.3km/h 18.0mph /  29km/h 88% 0.82in /  20.8mm
14:19 40.5 °F /  4.7 °C 37.2 °F /  2.9 °C 29.66in /  1004.3hPa South 8.0mph /  12.9km/h 14.0mph /  22.5km/h 88% 0.82in /  20.8mm
14:24 40.9 °F /  4.9 °C 37.6 °F /  3.1 °C 29.65in /  1003.9hPa South 7.0mph /  11.3km/h 14.0mph /  22.5km/h 88% 0.82in /  20.8mm
14:29 40.8 °F /  4.9 °C 37.5 °F /  3.1 °C 29.65in /  1003.9hPa South 8.0mph /  12.9km/h 23.0mph /  37km/h 88% 0.82in /  20.8mm
14:34 40.9 °F /  4.9 °C 37.6 °F /  3.1 °C 29.64in /  1003.6hPa South 7.0mph /  11.3km/h 23.0mph /  37km/h 88% 0.82in /  20.8mm
14:39 40.9 °F /  4.9 °C 37.6 °F /  3.1 °C 29.63in /  1003.3hPa South 8.0mph /  12.9km/h 16.0mph /  25.7km/h 88% 0.82in /  20.8mm
14:44 41.1 °F /  5.1 °C 37.8 °F /  3.2 °C 29.63in /  1003.3hPa South 6.0mph /  9.7km/h 16.0mph /  25.7km/h 88% 0.82in /  20.8mm
14:49 41.4 °F /  5.2 °C 38.1 °F /  3.4 °C 29.63in /  1003.3hPa South 9.0mph /  14.5km/h 17.0mph /  27.4km/h 88% 0.82in /  20.8mm
14:54 41.6 °F /  5.3 °C 38.3 °F /  3.5 °C 29.63in /  1003.3hPa South 10.0mph /  16.1km/h 17.0mph /  27.4km/h 88% 0.83in /  21.1mm
14:59 41.8 °F /  5.4 °C 38.5 °F /  3.6 °C 29.62in /  1002.9hPa South 9.0mph /  14.5km/h 17.0mph /  27.4km/h 88% 0.83in /  21.1mm
15:04 42.2 °F /  5.7 °C 39.2 °F /  4 °C 29.63in /  1003.3hPa South 8.0mph /  12.9km/h 16.0mph /  25.7km/h 89% 0.83in /  21.1mm
15:09 42.7 °F /  5.9 °C 39.7 °F /  4.3 °C 29.62in /  1002.9hPa SSW 7.0mph /  11.3km/h 16.0mph /  25.7km/h 89% 0.83in /  21.1mm
15:14 42.6 °F /  5.9 °C 39.6 °F /  4.2 °C 29.62in /  1002.9hPa South 6.0mph /  9.7km/h 17.0mph /  27.4km/h 89% 0.83in /  21.1mm
15:19 42.7 °F /  5.9 °C 39.4 °F /  4.1 °C 29.61in /  1002.6hPa SSW 10.0mph /  16.1km/h 20.0mph /  32.2km/h 88% 0.83in /  21.1mm
15:24 43.0 °F /  6.1 °C 39.7 °F /  4.3 °C 29.62in /  1002.9hPa SSW 8.0mph /  12.9km/h 20.0mph /  32.2km/h 88% 0.83in /  21.1mm
15:29 43.2 °F /  6.2 °C 39.9 °F /  4.4 °C 29.61in /  1002.6hPa SSW 7.0mph /  11.3km/h 15.0mph /  24.1km/h 88% 0.83in /  21.1mm
15:34 43.3 °F /  6.3 °C 40.0 °F /  4.4 °C 29.61in /  1002.6hPa SSW 9.0mph /  14.5km/h 15.0mph /  24.1km/h 88% 0.83in /  21.1mm
15:39 43.6 °F /  6.4 °C 40.6 °F /  4.8 °C 29.61in /  1002.6hPa South 7.0mph /  11.3km/h 15.0mph /  24.1km/h 89% 0.83in /  21.1mm
15:44 43.7 °F /  6.5 °C 40.4 °F /  4.7 °C 29.61in /  1002.6hPa South 5.0mph /  8km/h 12.0mph /  19.3km/h 88% 0.83in /  21.1mm
15:49 43.8 °F /  6.6 °C 40.5 °F /  4.7 °C 29.60in /  1002.3hPa South 6.0mph /  9.7km/h 16.0mph /  25.7km/h 88% 0.83in /  21.1mm
15:54 43.9 °F /  6.6 °C 40.6 °F /  4.8 °C 29.60in /  1002.3hPa SSW 8.0mph /  12.9km/h 16.0mph /  25.7km/h 88% 0.83in /  21.1mm
16:00 44.1 °F /  6.7 °C 41.1 °F /  5.1 °C 29.60in /  1002.3hPa SSW 5.0mph /  8km/h 16.0mph /  25.7km/h 89% 0.83in /  21.1mm
16:09 44.9 °F /  7.2 °C 41.6 °F /  5.3 °C 29.59in /  1001.9hPa SSW 8.0mph /  12.9km/h 17.0mph /  27.4km/h 88% 0.83in /  21.1mm
16:14 45.5 °F /  7.5 °C 42.2 °F /  5.7 °C 29.59in /  1001.9hPa SSW 7.0mph /  11.3km/h 17.0mph /  27.4km/h 88% 0.83in /  21.1mm
16:19 45.8 °F /  7.7 °C 42.2 °F /  5.7 °C 29.59in /  1001.9hPa SSW 9.0mph /  14.5km/h 18.0mph /  29km/h 87% 0.83in /  21.1mm
16:24 46.5 °F /  8.1 °C 42.8 °F /  6 °C 29.58in /  1001.6hPa SSW 8.0mph /  12.9km/h 18.0mph /  29km/h 87% 0.83in /  21.1mm
16:29 46.7 °F /  8.2 °C 42.4 °F /  5.8 °C 29.58in /  1001.6hPa SSW 7.0mph /  11.3km/h 14.0mph /  22.5km/h 85% 0.83in /  21.1mm
16:34 47.2 °F /  8.4 °C 42.9 °F /  6.1 °C 29.57in /  1001.2hPa South 8.0mph /  12.9km/h 15.0mph /  24.1km/h 85% 0.83in /  21.1mm
16:39 47.7 °F /  8.7 °C 42.8 °F /  6 °C 29.58in /  1001.6hPa South 10.0mph /  16.1km/h 18.0mph /  29km/h 83% 0.83in /  21.1mm
16:44 48.2 °F /  9 °C 43.3 °F /  6.3 °C 29.57in /  1001.2hPa SSW 8.0mph /  12.9km/h 18.0mph /  29km/h 83% 0.83in /  21.1mm
16:49 48.6 °F /  9.2 °C 43.7 °F /  6.5 °C 29.58in /  1001.6hPa SSW 9.0mph /  14.5km/h 21.0mph /  33.8km/h 83% 0.83in /  21.1mm
16:54 48.4 °F /  9.1 °C 43.2 °F /  6.2 °C 29.58in /  1001.6hPa SSW 8.0mph /  12.9km/h 21.0mph /  33.8km/h 82% 0.83in /  21.1mm
16:59 48.3 °F /  9.1 °C 43.1 °F /  6.2 °C 29.57in /  1001.2hPa SSW 11.0mph /  17.7km/h 18.0mph /  29km/h 82% 0.83in /  21.1mm
17:04 48.1 °F /  8.9 °C 42.9 °F /  6.1 °C 29.58in /  1001.6hPa SSW 8.0mph /  12.9km/h 18.0mph /  29km/h 82% 0.83in /  21.1mm
17:09 47.8 °F /  8.8 °C 42.6 °F /  5.9 °C 29.58in /  1001.6hPa SSW 9.0mph /  14.5km/h 21.0mph /  33.8km/h 82% 0.83in /  21.1mm
17:14 47.6 °F /  8.7 °C 42.4 °F /  5.8 °C 29.59in /  1001.9hPa SSW 8.0mph /  12.9km/h 21.0mph /  33.8km/h 82% 0.83in /  21.1mm
17:19 47.3 °F /  8.5 °C 42.4 °F /  5.8 °C 29.59in /  1001.9hPa SSW 10.0mph /  16.1km/h 17.0mph /  27.4km/h 83% 0.83in /  21.1mm
17:24 47.1 °F /  8.4 °C 42.5 °F /  5.8 °C 29.59in /  1001.9hPa SSW 9.0mph /  14.5km/h 21.0mph /  33.8km/h 84% 0.84in /  21.3mm
17:29 46.7 °F /  8.2 °C 42.4 °F /  5.8 °C 29.59in /  1001.9hPa SSW 10.0mph /  16.1km/h 21.0mph /  33.8km/h 85% 0.84in /  21.3mm
17:34 46.8 °F /  8.2 °C 42.8 °F /  6 °C 29.59in /  1001.9hPa SSW 10.0mph /  16.1km/h 20.0mph /  32.2km/h 86% 0.84in /  21.3mm
17:39 47.1 °F /  8.4 °C 43.4 °F /  6.3 °C 29.59in /  1001.9hPa SSW 8.0mph /  12.9km/h 18.0mph /  29km/h 87% 0.84in /  21.3mm
17:44 46.9 °F /  8.3 °C 43.2 °F /  6.2 °C 29.59in /  1001.9hPa SSW 7.0mph /  11.3km/h 19.0mph /  30.6km/h 87% 0.84in /  21.3mm
17:49 46.4 °F /  8 °C 42.7 °F /  5.9 °C 29.60in /  1002.3hPa SSW 9.0mph /  14.5km/h 19.0mph /  30.6km/h 87% 0.84in /  21.3mm
17:54 46.1 °F /  7.8 °C 42.7 °F /  5.9 °C 29.59in /  1001.9hPa South 7.0mph /  11.3km/h 19.0mph /  30.6km/h 88% 0.84in /  21.3mm
17:59 45.9 °F /  7.7 °C 42.5 °F /  5.8 °C 29.60in /  1002.3hPa SSW 10.0mph /  16.1km/h 18.0mph /  29km/h 88% 0.84in /  21.3mm
18:04 45.7 °F /  7.6 °C 42.4 °F /  5.8 °C 29.60in /  1002.3hPa South 7.0mph /  11.3km/h 18.0mph /  29km/h 88% 0.84in /  21.3mm
18:09 45.6 °F /  7.6 °C 42.3 °F /  5.7 °C 29.59in /  1001.9hPa South 8.0mph /  12.9km/h 16.0mph /  25.7km/h 88% 0.84in /  21.3mm
18:14 45.6 °F /  7.6 °C 42.3 °F /  5.7 °C 29.60in /  1002.3hPa SSW 11.0mph /  17.7km/h 22.0mph /  35.4km/h 88% 0.84in /  21.3mm
18:20 45.6 °F /  7.6 °C 42.3 °F /  5.7 °C 29.60in /  1002.3hPa SSW 9.0mph /  14.5km/h 22.0mph /  35.4km/h 88% 0.84in /  21.3mm
18:24 45.6 °F /  7.6 °C 42.3 °F /  5.7 °C 29.60in /  1002.3hPa SSW 10.0mph /  16.1km/h 20.0mph /  32.2km/h 88% 0.84in /  21.3mm
18:30 45.8 °F /  7.7 °C 42.5 °F /  5.8 °C 29.61in /  1002.6hPa SSW 9.0mph /  14.5km/h 19.0mph /  30.6km/h 88% 0.84in /  21.3mm
18:34 45.8 °F /  7.7 °C 42.5 °F /  5.8 °C 29.61in /  1002.6hPa SSW 6.0mph /  9.7km/h 19.0mph /  30.6km/h 88% 0.84in /  21.3mm
18:40 45.9 °F /  7.7 °C 42.5 °F /  5.8 °C 29.61in /  1002.6hPa SSW 8.0mph /  12.9km/h 15.0mph /  24.1km/h 88% 0.84in /  21.3mm
18:44 45.9 °F /  7.7 °C 42.5 °F /  5.8 °C 29.61in /  1002.6hPa SSW 7.0mph /  11.3km/h 18.0mph /  29km/h 88% 0.84in /  21.3mm
18:50 45.9 °F /  7.7 °C 42.5 °F /  5.8 °C 29.62in /  1002.9hPa SSW 9.0mph /  14.5km/h 18.0mph /  29km/h 88% 0.84in /  21.3mm
18:54 46.0 °F /  7.8 °C 42.6 °F /  5.9 °C 29.62in /  1002.9hPa SSW 7.0mph /  11.3km/h 18.0mph /  29km/h 88% 0.84in /  21.3mm
18:59 46.2 °F /  7.9 °C 42.8 °F /  6 °C 29.62in /  1002.9hPa SSW 8.0mph /  12.9km/h 18.0mph /  29km/h 88% 0.84in /  21.3mm
19:05 46.3 °F /  7.9 °C 42.9 °F /  6.1 °C 29.62in /  1002.9hPa SSW 6.0mph /  9.7km/h 18.0mph /  29km/h 88% 0.84in /  21.3mm
19:10 46.4 °F /  8 °C 43.0 °F /  6.1 °C 29.63in /  1003.3hPa SSW 7.0mph /  11.3km/h 16.0mph /  25.7km/h 88% 0.84in /  21.3mm
19:14 46.3 °F /  7.9 °C 42.9 °F /  6.1 °C 29.62in /  1002.9hPa SSW 7.0mph /  11.3km/h 16.0mph /  25.7km/h 88% 0.84in /  21.3mm
19:20 46.2 °F /  7.9 °C 42.8 °F /  6 °C 29.63in /  1003.3hPa SSW 9.0mph /  14.5km/h 15.0mph /  24.1km/h 88% 0.84in /  21.3mm
19:25 46.1 °F /  7.8 °C 42.7 °F /  5.9 °C 29.64in /  1003.6hPa SSW 6.0mph /  9.7km/h 15.0mph /  24.1km/h 88% 0.84in /  21.3mm
19:30 46.0 °F /  7.8 °C 42.6 °F /  5.9 °C 29.65in /  1003.9hPa SW 7.0mph /  11.3km/h 15.0mph /  24.1km/h 88% 0.84in /  21.3mm
19:35 46.0 °F /  7.8 °C 43.8 °F /  6.6 °C 29.65in /  1003.9hPa SSW 8.0mph /  12.9km/h 13.0mph /  20.9km/h 92% 0.84in /  21.3mm
19:40 46.1 °F /  7.8 °C 42.7 °F /  5.9 °C 29.65in /  1003.9hPa South 8.0mph /  12.9km/h 20.0mph /  32.2km/h 88% 0.84in /  21.3mm
19:45 46.1 °F /  7.8 °C 42.7 °F /  5.9 °C 29.66in /  1004.3hPa SSW 8.0mph /  12.9km/h 20.0mph /  32.2km/h 88% 0.84in /  21.3mm
19:50 46.2 °F /  7.9 °C 42.8 °F /  6 °C 29.66in /  1004.3hPa SSW 8.0mph /  12.9km/h 17.0mph /  27.4km/h 88% 0.84in /  21.3mm
19:55 46.0 °F /  7.8 °C 42.6 °F /  5.9 °C 29.67in /  1004.6hPa SSW 7.0mph /  11.3km/h 14.0mph /  22.5km/h 88% 0.84in /  21.3mm
19:59 46.1 °F /  7.8 °C 42.7 °F /  5.9 °C 29.67in /  1004.6hPa SSW 7.0mph /  11.3km/h 14.0mph /  22.5km/h 88% 0.84in /  21.3mm
20:05 46.3 °F /  7.9 °C 43.2 °F /  6.2 °C 29.68in /  1005hPa SW 8.0mph /  12.9km/h 14.0mph /  22.5km/h 89% 0.84in /  21.3mm
20:10 46.7 °F /  8.2 °C 43.3 °F /  6.3 °C 29.68in /  1005hPa SW 8.0mph /  12.9km/h 14.0mph /  22.5km/h 88% 0.84in /  21.3mm
20:20 47.1 °F /  8.4 °C 43.7 °F /  6.5 °C 29.69in /  1005.3hPa SW 6.0mph /  9.7km/h 12.0mph /  19.3km/h 88% 0.84in /  21.3mm
20:25 47.4 °F /  8.6 °C 44.0 °F /  6.7 °C 29.69in /  1005.3hPa SW 6.0mph /  9.7km/h 11.0mph /  17.7km/h 88% 0.84in /  21.3mm
20:30 47.6 °F /  8.7 °C 43.9 °F /  6.6 °C 29.69in /  1005.3hPa SW 5.0mph /  8km/h 11.0mph /  17.7km/h 87% 0.84in /  21.3mm
20:35 47.6 °F /  8.7 °C 43.9 °F /  6.6 °C 29.70in /  1005.6hPa SW 6.0mph /  9.7km/h 10.0mph /  16.1km/h 87% 0.84in /  21.3mm
20:40 47.6 °F /  8.7 °C 43.9 °F /  6.6 °C 29.70in /  1005.6hPa WSW 3.0mph /  4.8km/h 7.0mph /  11.3km/h 87% 0.84in /  21.3mm
20:45 47.5 °F /  8.6 °C 43.8 °F /  6.6 °C 29.71in /  1006hPa WSW 3.0mph /  4.8km/h 6.0mph /  9.7km/h 87% 0.84in /  21.3mm
20:49 47.5 °F /  8.6 °C 43.8 °F /  6.6 °C 29.72in /  1006.3hPa WNW 8.0mph /  12.9km/h 15.0mph /  24.1km/h 87% 0.84in /  21.3mm
20:55 47.4 °F /  8.6 °C 42.5 °F /  5.8 °C 29.72in /  1006.3hPa West 10.0mph /  16.1km/h 18.0mph /  29km/h 83% 0.84in /  21.3mm
21:05 47.1 °F /  8.4 °C 41.3 °F /  5.2 °C 29.73in /  1006.7hPa WSW 6.0mph /  9.7km/h 22.0mph /  35.4km/h 80% 0.84in /  21.3mm
21:10 47.0 °F /  8.3 °C 41.2 °F /  5.1 °C 29.74in /  1007hPa WSW 6.0mph /  9.7km/h 16.0mph /  25.7km/h 80% 0.84in /  21.3mm
21:15 46.8 °F /  8.2 °C 40.6 °F /  4.8 °C 29.74in /  1007hPa SW 3.0mph /  4.8km/h 11.0mph /  17.7km/h 79% 0.84in /  21.3mm
21:20 46.7 °F /  8.2 °C 40.5 °F /  4.7 °C 29.75in /  1007.3hPa West 4.0mph /  6.4km/h 10.0mph /  16.1km/h 79% 0.84in /  21.3mm
21:24 46.5 °F /  8.1 °C 40.3 °F /  4.6 °C 29.75in /  1007.3hPa West 7.0mph /  11.3km/h 11.0mph /  17.7km/h 79% 0.84in /  21.3mm
21:30 46.4 °F /  8 °C 40.2 °F /  4.6 °C 29.75in /  1007.3hPa WSW 6.0mph /  9.7km/h 11.0mph /  17.7km/h 79% 0.84in /  21.3mm
21:35 46.2 °F /  7.9 °C 39.7 °F /  4.3 °C 29.76in /  1007.7hPa WSW 6.0mph /  9.7km/h 13.0mph /  20.9km/h 78% 0.84in /  21.3mm
21:40 46.0 °F /  7.8 °C 39.5 °F /  4.2 °C 29.76in /  1007.7hPa WSW 4.0mph /  6.4km/h 13.0mph /  20.9km/h 78% 0.84in /  21.3mm
21:45 45.8 °F /  7.7 °C 39.3 °F /  4.1 °C 29.76in /  1007.7hPa West 8.0mph /  12.9km/h 14.0mph /  22.5km/h 78% 0.84in /  21.3mm
21:49 45.8 °F /  7.7 °C 39.3 °F /  4.1 °C 29.77in /  1008hPa West 8.0mph /  12.9km/h 14.0mph /  22.5km/h 78% 0.84in /  21.3mm
21:55 45.6 °F /  7.6 °C 39.1 °F /  3.9 °C 29.77in /  1008hPa WSW 7.0mph /  11.3km/h 13.0mph /  20.9km/h 78% 0.84in /  21.3mm
22:00 45.6 °F /  7.6 °C 39.5 °F /  4.2 °C 29.77in /  1008hPa West 6.0mph /  9.7km/h 12.0mph /  19.3km/h 79% 0.84in /  21.3mm
22:05 45.5 °F /  7.5 °C 39.0 °F /  3.9 °C 29.78in /  1008.4hPa West 8.0mph /  12.9km/h 14.0mph /  22.5km/h 78% 0.84in /  21.3mm
22:09 45.6 °F /  7.6 °C 38.8 °F /  3.8 °C 29.78in /  1008.4hPa West 8.0mph /  12.9km/h 15.0mph /  24.1km/h 77% 0.84in /  21.3mm
22:15 45.6 °F /  7.6 °C 38.5 °F /  3.6 °C 29.78in /  1008.4hPa WSW 7.0mph /  11.3km/h 15.0mph /  24.1km/h 76% 0.84in /  21.3mm
22:20 45.6 °F /  7.6 °C 38.1 °F /  3.4 °C 29.79in /  1008.7hPa WSW 9.0mph /  14.5km/h 16.0mph /  25.7km/h 75% 0.84in /  21.3mm
22:25 45.5 °F /  7.5 °C 38.0 °F /  3.3 °C 29.78in /  1008.4hPa WSW 4.0mph /  6.4km/h 16.0mph /  25.7km/h 75% 0.84in /  21.3mm
22:30 45.4 °F /  7.4 °C 37.9 °F /  3.3 °C 29.78in /  1008.4hPa WSW 9.0mph /  14.5km/h 16.0mph /  25.7km/h 75% 0.84in /  21.3mm
22:35 45.4 °F /  7.4 °C 37.6 °F /  3.1 °C 29.78in /  1008.4hPa West 5.0mph /  8km/h 16.0mph /  25.7km/h 74% 0.84in /  21.3mm
22:39 45.1 °F /  7.3 °C 37.7 °F /  3.2 °C 29.78in /  1008.4hPa West 5.0mph /  8km/h 12.0mph /  19.3km/h 75% 0.84in /  21.3mm
22:45 45.0 °F /  7.2 °C 37.2 °F /  2.9 °C 29.78in /  1008.4hPa West 8.0mph /  12.9km/h 14.0mph /  22.5km/h 74% 0.84in /  21.3mm
22:49 45.0 °F /  7.2 °C 36.9 °F /  2.7 °C 29.78in /  1008.4hPa WSW 9.0mph /  14.5km/h 17.0mph /  27.4km/h 73% 0.84in /  21.3mm
22:55 44.9 °F /  7.2 °C 37.5 °F /  3.1 °C 29.79in /  1008.7hPa West 4.0mph /  6.4km/h 17.0mph /  27.4km/h 75% 0.84in /  21.3mm
23:00 44.7 °F /  7.1 °C 36.2 °F /  2.3 °C 29.79in /  1008.7hPa WSW 10.0mph /  16.1km/h 17.0mph /  27.4km/h 72% 0.84in /  21.3mm
23:05 44.4 °F /  6.9 °C 35.6 °F /  2 °C 29.79in /  1008.7hPa West 12.0mph /  19.3km/h 23.0mph /  37km/h 71% 0.84in /  21.3mm
23:10 44.0 °F /  6.7 °C 35.9 °F /  2.2 °C 29.79in /  1008.7hPa West 6.0mph /  9.7km/h 23.0mph /  37km/h 73% 0.84in /  21.3mm
23:15 43.7 °F /  6.5 °C 35.6 °F /  2 °C 29.78in /  1008.4hPa WNW 6.0mph /  9.7km/h 12.0mph /  19.3km/h 73% 0.84in /  21.3mm
23:25 43.4 °F /  6.3 °C 35.3 °F /  1.8 °C 29.78in /  1008.4hPa West 7.0mph /  11.3km/h 16.0mph /  25.7km/h 73% 0.84in /  21.3mm
23:30 43.2 °F /  6.2 °C 35.5 °F /  1.9 °C 29.79in /  1008.7hPa West 6.0mph /  9.7km/h 16.0mph /  25.7km/h 74% 0.84in /  21.3mm
23:35 43.2 °F /  6.2 °C 35.1 °F /  1.7 °C 29.79in /  1008.7hPa West 6.0mph /  9.7km/h 14.0mph /  22.5km/h 73% 0.84in /  21.3mm
23:40 43.0 °F /  6.1 °C 35.3 °F /  1.8 °C 29.78in /  1008.4hPa WSW 4.0mph /  6.4km/h 12.0mph /  19.3km/h 74% 0.84in /  21.3mm
23:45 43.0 °F /  6.1 °C 35.3 °F /  1.8 °C 29.78in /  1008.4hPa WSW 6.0mph /  9.7km/h 15.0mph /  24.1km/h 74% 0.84in /  21.3mm
23:49 42.9 °F /  6.1 °C 35.2 °F /  1.8 °C 29.78in /  1008.4hPa SW 6.0mph /  9.7km/h 15.0mph /  24.1km/h 74% 0.84in /  21.3mm
23:55 42.9 °F /  6.1 °C 34.5 °F /  1.4 °C 29.78in /  1008.4hPa West 9.0mph /  14.5km/h 19.0mph /  30.6km/h 72% 0.84in /  21.3mm
23:59 42.8 °F /  6 °C 34.4 °F /  1.3 °C 29.78in /  1008.4hPa WSW 10.0mph /  16.1km/h 19.0mph /  30.6km/h 72% 0.84in /  21.3mm
Westford Weather
Compliments of Weather Underground

 
 
Current Radar Loop:

Copyright © WestfordWeather.net 2007-2014. All rights reserved.